Time;durP1;ratioP1;P1;durP2;ratioP2;P2;SDS_P1;SDS_P2;PMS_P1;PMS_P2;Temp;Humidity;BMP_temperature;BMP_pressure;BME280_temperature;BME280_humidity;BME280_pressure;Samples;Min_cycle;Max_cycle;Signal;HPM_P1;HPM_P2
2022/11/24 00:01:18;;;;;;;48.65;35.35;;;;;;;9.15;100.00;99671.44;5011016;28;20045;-79
2022/11/24 00:03:45;;;;;;;55.13;36.60;;;;;;;8.58;100.00;99577.59;5009825;28;20515;-79
2022/11/24 00:06:13;;;;;;;53.78;36.15;;;;;;;9.15;100.00;99670.56;4990368;28;20054;-80
2022/11/24 00:08:41;;;;;;;46.83;31.88;;;;;;;8.42;100.00;99547.19;5027812;28;20132;-79
2022/11/24 00:11:15;;;;;;;53.83;37.55;;;;;;;8.98;100.00;99660.22;5029160;28;20103;-79
2022/11/24 00:13:41;;;;;;;57.10;37.13;;;;;;;8.54;100.00;99619.47;5007987;28;20037;-79
2022/11/24 00:16:18;;;;;;;52.92;37.47;;;;;;;8.86;100.00;99677.72;5009725;28;20079;-78
2022/11/24 00:18:45;;;;;;;53.08;37.35;;;;;;;8.73;100.00;99662.94;5008381;28;20064;-78
2022/11/24 00:21:11;;;;;;;58.63;36.83;;;;;;;8.70;100.00;99652.50;5012958;28;20880;-78
2022/11/24 00:23:37;;;;;;;58.65;38.13;;;;;;;8.88;100.00;99683.81;5006826;28;20096;-78
2022/11/24 00:26:10;;;;;;;54.83;37.53;;;;;;;8.31;100.00;99564.63;5008027;28;20561;-78
2022/11/24 00:28:38;;;;;;;53.10;36.20;;;;;;;8.43;100.00;99594.25;5009772;28;20040;-77
2022/11/24 00:31:12;;;;;;;58.90;36.15;;;;;;;8.03;100.00;99564.75;5009959;28;20050;-78
2022/11/24 00:33:38;;;;;;;50.85;34.85;;;;;;;8.56;100.00;99690.94;5003169;28;20518;-80
2022/11/24 00:36:04;;;;;;;64.65;37.58;;;;;;;8.00;100.00;99583.03;4990193;28;20050;-80
2022/11/24 00:38:29;;;;;;;51.90;35.22;;;;;;;7.40;100.00;99479.63;4989459;28;20057;-80
2022/11/24 00:40:55;;;;;;;57.95;34.28;;;;;;;8.66;100.00;99695.22;5008788;28;20052;-77
2022/11/24 00:43:20;;;;;;;54.70;35.15;;;;;;;7.93;100.00;99589.16;4994234;28;20466;-77
2022/11/24 00:45:49;;;;;;;47.30;32.75;;;;;;;8.35;100.00;99671.78;4989315;28;20812;-78
2022/11/24 00:48:14;;;;;;;51.65;35.15;;;;;;;8.10;100.00;99671.00;5028224;28;20128;-79
2022/11/24 00:50:39;;;;;;;51.33;33.85;;;;;;;8.00;100.00;99657.03;5017314;28;20564;-77
2022/11/24 00:53:05;;;;;;;51.55;33.70;;;;;;;8.13;100.00;99670.13;5005866;28;20054;-76
2022/11/24 00:55:31;;;;;;;65.63;46.15;;;;;;;8.38;100.00;99686.56;4974655;28;20425;-76
2022/11/24 00:57:56;;;;;;;52.25;36.10;;;;;;;7.49;100.00;99551.84;4997924;28;20053;-77
2022/11/24 01:00:22;;;;;;;53.85;36.13;;;;;;;8.37;100.00;99693.56;5005691;28;20065;-76
2022/11/24 01:02:48;;;;;;;56.47;36.25;;;;;;;7.73;100.00;99603.13;4994622;28;20062;-76
2022/11/24 01:05:13;;;;;;;55.60;37.58;;;;;;;8.04;100.00;99702.34;4970783;28;20096;-76
2022/11/24 01:07:39;;;;;;;48.63;32.88;;;;;;;8.12;100.00;99684.03;4989538;28;20034;-77
2022/11/24 01:10:05;;;;;;;59.83;42.08;;;;;;;8.11;100.00;99687.53;4990651;28;20041;-77
2022/11/24 01:12:31;;;;;;;68.60;39.15;;;;;;;7.60;100.00;99584.00;5008850;28;20493;-79
2022/11/24 01:14:57;;;;;;;63.92;41.58;;;;;;;7.72;100.00;99611.81;5009394;28;20563;-80
2022/11/24 01:17:23;;;;;;;77.20;43.38;;;;;;;8.15;100.00;99710.19;4996829;28;20060;-78
2022/11/24 01:19:49;;;;;;;49.22;37.85;;;;;;;8.09;100.00;99684.03;5004560;28;20397;-77
2022/11/24 01:22:15;;;;;;;71.28;41.25;;;;;;;8.08;100.00;99721.47;4989785;28;20129;-79
2022/11/24 01:24:42;;;;;;;101.65;45.35;;;;;;;7.84;100.00;99678.84;4988617;28;20126;-79
2022/11/24 01:27:07;;;;;;;119.97;45.13;;;;;;;7.27;100.00;99590.09;5005957;28;20076;-78
2022/11/24 01:29:33;;;;;;;84.82;42.83;;;;;;;7.31;100.00;99580.56;5007985;28;20501;-79
2022/11/24 01:32:01;;;;;;;74.65;38.53;;;;;;;6.74;100.00;99490.13;5007792;28;20038;-79
2022/11/24 01:34:27;;;;;;;77.85;41.10;;;;;;;7.29;100.00;99605.78;4987217;28;20698;-79
2022/11/24 01:36:52;;;;;;;81.32;39.92;;;;;;;7.25;100.00;99601.41;5005362;28;20049;-80
2022/11/24 01:39:18;;;;;;;147.60;41.95;;;;;;;7.97;100.00;99726.72;5007576;28;20128;-77
2022/11/24 01:41:43;;;;;;;80.47;36.90;;;;;;;7.36;100.00;99597.94;5007691;28;20041;-79
2022/11/24 01:44:26;;;;;;;104.40;38.58;;;;;;;7.90;100.00;99738.91;5002105;28;20449;-79
2022/11/24 01:46:56;;;;;;;96.90;36.30;;;;;;;7.38;100.00;99645.78;5009561;28;20049;-79
2022/11/24 01:49:41;;;;;;;130.93;39.95;;;;;;;7.27;100.00;99620.56;5027960;28;20037;-78
2022/11/24 01:52:16;;;;;;;108.63;36.08;;;;;;;8.12;100.00;99749.34;4990372;28;20054;-80
2022/11/24 01:54:50;;;;;;;245.75;43.30;;;;;;;7.17;100.00;99583.16;5003046;28;20089;-78
2022/11/24 01:57:37;;;;;;;99.63;35.35;;;;;;;8.07;100.00;99724.97;5007514;28;20068;-78
2022/11/24 02:00:07;;;;;;;45.35;30.70;;;;;;;7.37;100.00;99586.66;5005779;28;20406;-76
2022/11/24 02:02:32;;;;;;;53.15;30.58;;;;;;;7.89;100.00;99650.09;5007462;28;20084;-77
2022/11/24 02:05:06;;;;;;;87.25;35.03;;;;;;;8.23;100.00;99718.84;4996995;28;20102;-78
2022/11/24 02:07:34;;;;;;;70.53;32.85;;;;;;;8.37;100.00;99748.44;5010448;28;20029;-79
2022/11/24 02:10:07;;;;;;;85.00;35.22;;;;;;;8.37;100.00;99731.91;5021490;28;20401;-80
2022/11/24 02:12:35;;;;;;;79.45;34.80;;;;;;;8.36;100.00;99735.41;4986265;28;20069;-81
2022/11/24 02:15:01;;;;;;;54.47;32.65;;;;;;;8.42;100.00;99761.56;4970220;28;20054;-79
2022/11/24 02:17:26;;;;;;;55.83;32.78;;;;;;;7.68;100.00;99607.50;4993222;28;20052;-79
2022/11/24 02:19:56;;;;;;;83.60;37.20;;;;;;;8.19;100.00;99740.63;5003610;28;20129;-80
2022/11/24 02:22:37;;;;;;;61.17;32.90;;;;;;;7.88;100.00;99683.19;4988703;28;20045;-80
2022/11/24 02:25:33;;;;;;;66.70;32.85;;;;;;;7.68;100.00;99625.78;5005324;28;20065;-79
2022/11/24 02:28:01;;;;;;;49.83;32.47;;;;;;;8.25;100.00;99723.22;4997236;28;20129;-80
2022/11/24 02:30:27;;;;;;;49.22;32.70;;;;;;;8.36;100.00;99754.56;5002781;28;20046;-79
2022/11/24 02:32:53;;;;;;;61.80;32.38;;;;;;;8.27;100.00;99744.13;4988189;28;20046;-76
2022/11/24 02:35:19;;;;;;;46.53;27.67;;;;;;;7.51;100.00;99614.47;5002721;28;20420;-76
2022/11/24 02:37:44;;;;;;;57.45;29.58;;;;;;;8.28;100.00;99747.59;5007181;28;20036;-75
2022/11/24 02:40:13;;;;;;;45.65;29.65;;;;;;;8.18;100.00;99731.94;4989409;28;20049;-77
2022/11/24 02:42:43;;;;;;;56.22;30.33;;;;;;;7.55;100.00;99617.06;4995772;28;20134;-76
2022/11/24 02:45:10;;;;;;;53.05;30.10;;;;;;;7.36;100.00;99597.94;5000779;28;20053;-78
2022/11/24 02:47:35;;;;;;;64.00;30.42;;;;;;;7.36;100.00;99603.16;5018864;28;20155;-76
2022/11/24 02:50:01;;;;;;;82.95;32.55;;;;;;;8.13;100.00;99743.28;5029746;28;20049;-78
2022/11/24 02:52:26;;;;;;;47.78;28.27;;;;;;;8.10;100.00;99733.69;4999706;28;20045;-76
2022/11/24 02:54:52;;;;;;;62.95;29.58;;;;;;;7.85;100.00;99711.94;5009934;28;20049;-76
2022/11/24 02:57:17;;;;;;;42.13;28.33;;;;;;;8.11;100.00;99750.25;5010856;28;20042;-76
2022/11/24 02:59:43;;;;;;;45.33;27.02;;;;;;;8.23;100.00;99753.69;4995043;28;20058;-79
2022/11/24 03:02:09;;;;;;;67.28;33.47;;;;;;;7.40;100.00;99612.72;4990817;28;20058;-77
2022/11/24 03:04:34;;;;;;;51.20;31.23;;;;;;;7.50;100.00;99618.81;4998102;28;20379;-75
2022/11/24 03:07:00;;;;;;;48.00;31.67;;;;;;;8.22;100.00;99753.72;5012142;28;20490;-78
2022/11/24 03:09:25;;;;;;;85.80;31.73;;;;;;;7.81;100.00;99731.09;5007051;28;20050;-77
2022/11/24 03:11:51;;;;;;;51.10;29.83;;;;;;;7.57;100.00;99705.84;5009100;28;20133;-78
2022/11/24 03:14:16;;;;;;;44.15;29.63;;;;;;;7.91;100.00;99740.66;4996741;28;20058;-77
2022/11/24 03:16:42;;;;;;;46.92;30.13;;;;;;;7.12;100.00;99603.16;4991705;28;20041;-77
2022/11/24 03:19:07;;;;;;;46.75;29.08;;;;;;;8.18;100.00;99762.44;4991465;28;20038;-78
2022/11/24 03:21:35;;;;;;;46.72;32.13;;;;;;;8.05;100.00;99738.03;5001030;28;20056;-78
2022/11/24 03:24:01;;;;;;;61.92;33.80;;;;;;;7.17;100.00;99636.19;5007483;28;20107;-77
2022/11/24 03:26:26;;;;;;;42.97;28.92;;;;;;;8.12;100.00;99765.03;4993495;28;20062;-79
2022/11/24 03:28:54;;;;;;;44.25;30.83;;;;;;;8.19;100.00;99759.81;4994199;28;20446;-79
2022/11/24 03:31:20;;;;;;;55.72;33.65;;;;;;;7.57;100.00;99659.72;4991772;28;20117;-79
2022/11/24 03:33:45;;;;;;;51.97;30.00;;;;;;;8.11;100.00;99747.63;4998561;28;20180;-80
2022/11/24 03:36:11;;;;;;;70.78;32.80;;;;;;;8.03;100.00;99755.47;4973242;28;20109;-78
2022/11/24 03:38:36;;;;;;;65.47;32.97;;;;;;;7.89;100.00;99708.47;4990485;28;20050;-79
2022/11/24 03:41:02;;;;;;;50.25;31.35;;;;;;;8.16;100.00;99746.75;4984703;28;20046;-78
2022/11/24 03:43:28;;;;;;;46.80;30.83;;;;;;;7.42;100.00;99633.59;5010222;28;20073;-77
2022/11/24 03:45:53;;;;;;;48.78;30.77;;;;;;;7.81;100.00;99731.94;5003714;28;20485;-78
2022/11/24 03:48:20;;;;;;;40.28;29.02;;;;;;;6.63;100.00;99532.69;4995611;28;20050;-77
2022/11/24 03:50:59;;;;;;;47.03;29.35;;;;;;;8.14;100.00;99745.00;4992052;28;20050;-78
2022/11/24 03:53:27;;;;;;;39.47;28.23;;;;;;;7.90;100.00;99693.66;5003278;28;20115;-77
2022/11/24 03:55:53;;;;;;;37.63;26.95;;;;;;;7.42;100.00;99628.38;5000172;28;20074;-78
2022/11/24 03:58:18;;;;;;;40.95;28.42;;;;;;;8.23;100.00;99760.69;4994446;28;20132;-78
2022/11/24 04:00:44;;;;;;;47.95;28.35;;;;;;;8.21;100.00;99765.03;5000503;28;20141;-77
2022/11/24 04:03:10;;;;;;;46.85;29.40;;;;;;;8.17;100.00;99772.03;4984239;28;20413;-76
2022/11/24 04:05:36;;;;;;;43.90;29.38;;;;;;;7.47;100.00;99634.50;5005938;28;20054;-78
2022/11/24 04:08:04;;;;;;;39.20;29.88;;;;;;;7.39;100.00;99613.59;5023330;28;20045;-79
2022/11/24 04:10:32;;;;;;;38.90;28.95;;;;;;;7.58;100.00;99655.34;4997342;28;20070;-77
2022/11/24 04:12:57;;;;;;;40.05;28.52;;;;;;;7.90;100.00;99733.69;5007520;28;20050;-78
2022/11/24 04:15:22;;;;;;;36.13;28.20;;;;;;;7.69;100.00;99669.28;5007913;28;20203;-77
2022/11/24 04:17:49;;;;;;;36.20;27.27;;;;;;;7.79;100.00;99698.88;5005328;28;20072;-80
2022/11/24 04:20:15;;;;;;;38.65;26.27;;;;;;;7.35;100.00;99618.81;4991243;28;20140;-78
2022/11/24 04:22:41;;;;;;;38.75;26.90;;;;;;;7.54;100.00;99651.03;4996698;28;20113;-78
2022/11/24 04:25:08;;;;;;;34.05;25.95;;;;;;;7.68;100.00;99664.06;4989146;28;20060;-78
2022/11/24 04:27:35;;;;;;;35.05;26.33;;;;;;;8.10;100.00;99738.03;5009835;28;20389;-78
2022/11/24 04:30:01;;;;;;;31.63;24.52;;;;;;;8.19;100.00;99762.44;4990959;28;20577;-75
2022/11/24 04:32:27;;;;;;;35.40;27.08;;;;;;;6.84;100.00;99539.69;5006099;28;20505;-76
2022/11/24 04:34:52;;;;;;;38.30;27.60;;;;;;;7.58;100.00;99665.78;5009231;28;20127;-77
2022/11/24 04:37:18;;;;;;;39.72;28.60;;;;;;;7.94;100.00;99717.16;5009590;28;20040;-77
2022/11/24 04:39:45;;;;;;;35.28;27.58;;;;;;;8.11;100.00;99739.78;5007021;28;20054;-77
2022/11/24 04:42:11;;;;;;;34.97;26.95;;;;;;;7.96;100.00;99719.75;5005584;28;20073;-77
2022/11/24 04:44:36;;;;;;;41.45;30.15;;;;;;;8.15;100.00;99765.06;5008681;28;20181;-78
2022/11/24 04:47:02;;;;;;;39.42;31.35;;;;;;;7.85;100.00;99745.88;5022387;28;20036;-76
2022/11/24 04:49:27;;;;;;;39.35;29.52;;;;;;;7.27;100.00;99624.03;5013481;28;20120;-77
2022/11/24 04:51:53;;;;;;;41.65;29.30;;;;;;;8.20;100.00;99790.28;5006568;28;20046;-79
2022/11/24 04:54:18;;;;;;;38.33;30.73;;;;;;;7.13;100.00;99620.53;5007656;28;20061;-78
2022/11/24 04:56:44;;;;;;;43.08;29.98;;;;;;;7.32;100.00;99648.38;5008455;28;20133;-79
2022/11/24 04:59:16;;;;;;;40.25;28.80;;;;;;;8.18;100.00;99768.53;5006812;28;20638;-78
2022/11/24 05:01:43;;;;;;;40.25;29.40;;;;;;;8.17;100.00;99784.19;5008506;28;20096;-78
2022/11/24 05:04:10;;;;;;;43.55;29.60;;;;;;;8.23;100.00;99773.75;5003054;28;20046;-79
2022/11/24 05:06:39;;;;;;;40.28;31.63;;;;;;;7.67;100.00;99671.03;5003243;28;20048;-79
2022/11/24 05:09:07;;;;;;;45.65;31.90;;;;;;;8.21;100.00;99799.88;5024125;28;20131;-77
2022/11/24 05:11:33;;;;;;;49.65;32.65;;;;;;;7.36;100.00;99652.75;5002900;28;20060;-76
2022/11/24 05:13:59;;;;;;;48.17;32.47;;;;;;;7.59;100.00;99678.88;4989659;28;20038;-76
2022/11/24 05:16:25;;;;;;;51.60;37.08;;;;;;;8.19;100.00;99814.72;5007306;28;20029;-77
2022/11/24 05:18:51;;;;;;;51.00;35.05;;;;;;;7.72;100.00;99705.81;5007570;28;20054;-76
2022/11/24 05:21:16;;;;;;;50.10;34.03;;;;;;;8.19;100.00;99793.78;5005979;28;20057;-77
2022/11/24 05:23:41;;;;;;;47.25;35.38;;;;;;;8.37;100.00;99828.63;4986921;28;20498;-76
2022/11/24 05:26:07;;;;;;;47.13;34.83;;;;;;;8.37;100.00;99813.81;4997266;28;20085;-76
2022/11/24 05:28:33;;;;;;;49.63;33.30;;;;;;;8.50;100.00;99847.81;5000589;28;20068;-75
2022/11/24 05:31:02;;;;;;;46.95;35.25;;;;;;;8.51;100.00;99839.97;5000351;28;20049;-78
2022/11/24 05:33:29;;;;;;;55.22;35.53;;;;;;;8.40;100.00;99813.81;5007260;28;20107;-76
2022/11/24 05:35:58;;;;;;;51.30;34.92;;;;;;;7.70;100.00;99696.25;5000812;28;20065;-77
2022/11/24 05:38:25;;;;;;;56.10;36.20;;;;;;;7.95;100.00;99736.31;5004207;28;20107;-78
2022/11/24 05:40:51;;;;;;;51.03;34.45;;;;;;;8.44;100.00;99810.34;5007919;28;20034;-78
2022/11/24 05:43:16;;;;;;;51.22;34.05;;;;;;;7.54;100.00;99678.00;5010807;28;20029;-79
2022/11/24 05:45:43;;;;;;;54.10;36.70;;;;;;;7.69;100.00;99712.81;5006778;28;20033;-79
2022/11/24 05:48:15;;;;;;;55.20;37.25;;;;;;;7.78;100.00;99710.19;4989498;28;20077;-78
2022/11/24 05:50:41;;;;;;;53.60;35.05;;;;;;;8.52;100.00;99846.97;4975671;28;20116;-77
2022/11/24 05:53:09;;;;;;;50.42;33.90;;;;;;;7.73;100.00;99696.28;5000996;28;20061;-78
2022/11/24 05:55:34;;;;;;;49.78;32.33;;;;;;;7.59;100.00;99678.00;5006640;28;20037;-75
2022/11/24 05:58:02;;;;;;;50.03;34.58;;;;;;;7.87;100.00;99712.81;4988006;28;20560;-75
2022/11/24 06:00:30;;;;;;;59.38;35.97;;;;;;;8.58;100.00;99846.06;4997522;28;20145;-77
2022/11/24 06:02:57;;;;;;;58.00;37.40;;;;;;;7.89;100.00;99713.69;4995170;28;20149;-76
2022/11/24 06:05:23;;;;;;;51.97;35.20;;;;;;;8.53;100.00;99830.38;5006720;28;20041;-76
2022/11/24 06:07:49;;;;;;;57.20;35.58;;;;;;;8.70;100.00;99850.41;4988612;28;20061;-80
2022/11/24 06:10:15;;;;;;;48.17;34.42;;;;;;;8.36;100.00;99774.63;5006186;28;20073;-80
2022/11/24 06:12:41;;;;;;;52.25;36.33;;;;;;;8.66;100.00;99845.19;5007984;28;20045;-78
2022/11/24 06:15:08;;;;;;;58.53;37.50;;;;;;;8.66;100.00;99818.16;5006629;28;20041;-78
2022/11/24 06:17:33;;;;;;;57.03;36.78;;;;;;;8.79;100.00;99846.03;5005316;28;20553;-78
2022/11/24 06:19:58;;;;;;;55.17;36.40;;;;;;;8.32;100.00;99767.66;4995819;28;20170;-78
2022/11/24 06:22:24;;;;;;;59.25;36.83;;;;;;;7.86;100.00;99711.06;4987998;28;20147;-76
2022/11/24 06:24:50;;;;;;;58.13;37.13;;;;;;;7.97;100.00;99726.72;5004119;28;20124;-75
2022/11/24 06:27:15;;;;;;;52.65;32.38;;;;;;;8.64;100.00;99857.41;5007607;28;20046;-75
2022/11/24 06:29:41;;;;;;;54.22;34.67;;;;;;;8.69;100.00;99874.84;4993651;28;20058;-79
2022/11/24 06:32:07;;;;;;;51.10;33.47;;;;;;;8.78;100.00;99869.56;5010935;28;20497;-77
2022/11/24 06:34:33;;;;;;;47.90;30.23;;;;;;;8.64;100.00;99843.47;4983301;28;20038;-78
2022/11/24 06:36:59;;;;;;;54.63;29.05;;;;;;;8.67;100.00;99874.84;4976533;28;20049;-77
2022/11/24 06:39:24;;;;;;;51.90;27.95;;;;;;;8.01;100.00;99752.00;4994562;28;20054;-77
2022/11/24 06:41:50;;;;;;;51.75;31.20;;;;;;;8.53;100.00;99838.22;5009023;28;20448;-77
2022/11/24 06:44:16;;;;;;;49.65;30.70;;;;;;;8.72;100.00;99835.59;5014017;28;20046;-78
2022/11/24 06:46:41;;;;;;;44.15;28.98;;;;;;;8.85;100.00;99868.72;5011723;28;20029;-78
2022/11/24 06:49:06;;;;;;;48.88;30.73;;;;;;;8.69;100.00;99836.47;5014118;28;20042;-78
2022/11/24 06:51:32;;;;;;;44.70;30.02;;;;;;;8.90;100.00;99861.72;5011982;28;20049;-76
2022/11/24 06:53:57;;;;;;;49.03;26.55;;;;;;;8.56;100.00;99839.97;5013602;28;20577;-78
2022/11/24 06:56:24;;;;;;;40.80;25.85;;;;;;;8.82;100.00;99874.78;5009942;28;20042;-78
2022/11/24 06:58:52;;;;;;;41.63;25.13;;;;;;;8.19;100.00;99785.97;5009419;28;20096;-76
2022/11/24 07:01:28;;;;;;;45.60;27.38;;;;;;;8.88;100.00;99887.88;5009554;28;20073;-75
2022/11/24 07:03:55;;;;;;;41.70;27.45;;;;;;;8.19;100.00;99765.06;5009258;28;20114;-77
2022/11/24 07:06:22;;;;;;;36.50;22.48;;;;;;;8.88;100.00;99887.88;5010501;28;20426;-75
2022/11/24 07:08:47;;;;;;;34.05;23.40;;;;;;;8.88;100.00;99897.47;5014810;28;20180;-76
2022/11/24 07:11:16;;;;;;;40.30;25.02;;;;;;;8.23;100.00;99776.34;5009048;28;20061;-74
2022/11/24 07:13:42;;;;;;;35.72;23.58;;;;;;;8.98;100.00;99909.66;5007309;28;20034;-75
2022/11/24 07:16:11;;;;;;;43.45;26.13;;;;;;;8.97;100.00;99905.31;5004586;28;20096;-75
2022/11/24 07:18:37;;;;;;;35.60;25.08;;;;;;;8.09;100.00;99763.28;5008280;28;20124;-75
2022/11/24 07:21:03;;;;;;;36.95;24.02;;;;;;;8.97;100.00;99910.53;4991730;28;20043;-76
2022/11/24 07:23:29;;;;;;;36.47;25.05;;;;;;;8.23;100.00;99786.81;5004206;28;20058;-75
2022/11/24 07:25:55;;;;;;;37.63;26.38;;;;;;;9.00;100.00;99904.44;4998964;28;20042;-75
2022/11/24 07:28:21;;;;;;;39.35;25.23;;;;;;;8.09;100.00;99771.13;5004455;28;20040;-75
2022/11/24 07:30:47;;;;;;;37.15;22.60;;;;;;;8.92;100.00;99896.59;5004277;28;20049;-75
2022/11/24 07:33:12;;;;;;;34.67;24.23;;;;;;;9.10;100.00;99914.00;5004447;28;20129;-76
2022/11/24 07:35:37;;;;;;;33.75;25.08;;;;;;;8.32;100.00;99786.81;4995283;28;20093;-76
2022/11/24 07:38:03;;;;;;;38.75;24.63;;;;;;;8.24;100.00;99791.16;4999809;28;20057;-76
2022/11/24 07:40:29;;;;;;;33.67;22.23;;;;;;;8.05;100.00;99782.44;4998514;28;20033;-76
2022/11/24 07:42:54;;;;;;;34.53;24.15;;;;;;;8.22;100.00;99787.69;4997658;28;20046;-76
2022/11/24 07:45:20;;;;;;;26.50;20.50;;;;;;;8.26;100.00;99794.63;4995107;28;20050;-76
2022/11/24 07:47:45;;;;;;;31.08;23.50;;;;;;;8.86;100.00;99918.41;5009413;28;20046;-76
2022/11/24 07:50:11;;;;;;;34.75;23.45;;;;;;;8.25;100.00;99801.63;5009362;28;20135;-76
2022/11/24 07:52:37;;;;;;;32.92;23.67;;;;;;;9.07;100.00;99924.47;5007283;28;20111;-76
2022/11/24 07:55:04;;;;;;;32.72;21.83;;;;;;;9.16;100.00;99924.47;4996682;28;20038;-76
2022/11/24 07:57:30;;;;;;;36.13;22.05;;;;;;;8.57;100.00;99826.00;5019124;28;20568;-76
2022/11/24 07:59:55;;;;;;;33.63;23.35;;;;;;;8.34;100.00;99819.03;4994640;28;20076;-76
2022/11/24 08:02:21;;;;;;;38.33;24.15;;;;;;;9.12;100.00;99942.78;4995463;28;20402;-76
2022/11/24 08:04:47;;;;;;;29.85;20.02;;;;;;;9.12;100.00;99938.44;4987532;28;20163;-77
2022/11/24 08:07:13;;;;;;;30.33;21.38;;;;;;;8.88;100.00;99898.34;5014588;28;20034;-75
2022/11/24 08:09:39;;;;;;;36.33;20.95;;;;;;;9.22;100.00;99949.75;5012753;28;20401;-75
2022/11/24 08:12:04;;;;;;;36.42;22.10;;;;;;;9.27;100.00;99956.75;4999899;28;20636;-74
2022/11/24 08:14:30;;;;;;;29.95;22.55;;;;;;;9.36;100.00;99953.19;5011952;28;20396;-76
2022/11/24 08:16:59;;;;;;;32.20;21.95;;;;;;;8.49;100.00;99840.84;4990494;28;20053;-77
2022/11/24 08:19:24;;;;;;;32.45;22.42;;;;;;;8.03;100.00;99802.50;4993290;28;20048;-75
2022/11/24 08:21:50;;;;;;;32.40;22.42;;;;;;;8.15;100.00;99827.78;4994658;28;20054;-77
2022/11/24 08:24:16;;;;;;;35.75;26.60;;;;;;;9.15;100.00;99956.72;5006153;28;20053;-77
2022/11/24 08:26:42;;;;;;;37.58;26.38;;;;;;;9.27;100.00;99959.34;5008381;28;20445;-76
2022/11/24 08:29:14;;;;;;;40.25;26.98;;;;;;;8.93;100.00;99939.34;5007860;28;20050;-75
2022/11/24 08:31:39;;;;;;;44.22;25.55;;;;;;;8.33;100.00;99824.25;5006453;28;20045;-74
2022/11/24 08:34:05;;;;;;;44.55;25.33;;;;;;;8.55;100.00;99893.16;4999601;28;20362;-75
2022/11/24 08:36:32;;;;;;;45.55;25.65;;;;;;;8.56;100.00;99873.97;5010730;28;20053;-75
2022/11/24 08:38:59;;;;;;;43.33;25.95;;;;;;;9.12;100.00;99937.56;5014597;28;20121;-76
2022/11/24 08:41:25;;;;;;;38.60;27.23;;;;;;;9.20;100.00;99961.97;5015139;28;20062;-76
2022/11/24 08:43:52;;;;;;;44.13;27.58;;;;;;;9.34;100.00;99957.59;5004475;28;20096;-77
2022/11/24 08:46:18;;;;;;;45.22;28.23;;;;;;;9.35;100.00;99951.47;4985170;28;20062;-75
2022/11/24 08:48:53;;;;;;;47.42;32.03;;;;;;;9.34;100.00;99960.22;5007986;28;20073;-75
2022/11/24 08:51:24;;;;;;;39.42;25.85;;;;;;;8.91;100.00;99868.69;5006828;28;20046;-77
2022/11/24 08:53:57;;;;;;;42.08;27.27;;;;;;;9.45;100.00;99936.59;5003702;28;20374;-76
2022/11/24 08:56:23;;;;;;;47.92;26.25;;;;;;;9.47;100.00;99961.03;5007142;28;20049;-75
2022/11/24 08:58:49;;;;;;;44.53;25.55;;;;;;;9.40;100.00;99951.47;5007820;28;20044;-75
2022/11/24 09:01:16;;;;;;;44.38;27.27;;;;;;;9.47;100.00;99948.81;5003534;28;20053;-74
2022/11/24 09:03:43;;;;;;;36.83;23.55;;;;;;;9.30;100.00;99940.16;5008762;28;20409;-75
2022/11/24 09:06:09;;;;;;;34.38;24.90;;;;;;;8.88;100.00;99895.72;5009352;28;20099;-76
2022/11/24 09:08:35;;;;;;;41.03;24.08;;;;;;;8.85;100.00;99853.88;4991026;28;20145;-76
2022/11/24 09:11:06;;;;;;;48.35;27.88;;;;;;;8.84;100.00;99861.72;5001196;28;20105;-75
2022/11/24 09:13:32;;;;;;;46.42;24.13;;;;;;;8.72;100.00;99846.91;4999598;28;20177;-76
2022/11/24 09:16:25;;;;;;;38.08;22.42;;;;;;;9.23;100.00;99962.84;4996214;28;20054;-76
2022/11/24 09:19:01;;;;;;;37.05;23.35;;;;;;;9.47;100.00;99976.75;4989221;28;20400;-81
2022/11/24 09:21:28;;;;;;;42.38;23.05;;;;;;;8.72;100.00;99851.28;5001468;28;20132;-77
2022/11/24 09:23:54;;;;;;;42.03;23.10;;;;;;;9.46;100.00;99978.50;4994285;28;20116;-75
2022/11/24 09:26:26;;;;;;;39.38;23.45;;;;;;;9.45;100.00;99962.78;4987238;28;20046;-76
2022/11/24 09:28:53;;;;;;;39.78;22.92;;;;;;;8.88;100.00;99869.56;5004557;28;20034;-76
2022/11/24 09:31:20;;;;;;;40.22;24.15;;;;;;;9.45;100.00;99955.78;5012071;28;20060;-81
2022/11/24 09:33:45;;;;;;;45.95;23.33;;;;;;;9.47;100.00;99929.63;5009578;28;20050;-80
2022/11/24 09:36:12;;;;;;;40.83;22.75;;;;;;;9.40;100.00;99928.75;5006631;28;20780;-77
2022/11/24 09:38:38;;;;;;;34.75;23.05;;;;;;;9.18;100.00;99903.53;4998808;28;20041;-82
2022/11/24 09:41:43;;;;;;;43.10;22.77;;;;;;;8.86;100.00;99839.91;4998836;28;20072;-81
2022/11/24 09:44:33;;;;;;;40.00;23.40;;;;;;;9.55;100.00;99961.00;4977226;28;20046;-78
2022/11/24 09:47:11;;;;;;;43.95;23.20;;;;;;;9.49;100.00;99975.00;4992498;28;20042;-80
2022/11/24 09:49:55;;;;;;;43.90;23.02;;;;;;;8.94;100.00;99871.28;5003621;28;20038;-79
2022/11/24 09:52:41;;;;;;;44.35;24.38;;;;;;;9.47;100.00;99971.50;4994322;28;20064;-80
2022/11/24 09:55:28;;;;;;;44.13;24.33;;;;;;;8.76;100.00;99840.81;4997283;28;20057;-79
2022/11/24 09:58:41;;;;;;;45.50;28.05;;;;;;;9.45;100.00;99955.78;5002062;28;20049;-82
2022/11/24 10:01:16;;;;;;;39.97;22.73;;;;;;;8.81;100.00;99827.72;4988967;28;20058;-78
2022/11/24 10:03:44;;;;;;;42.53;25.42;;;;;;;8.92;100.00;99818.13;4996731;28;20058;-78
2022/11/24 10:06:37;;;;;;;44.03;25.90;;;;;;;9.76;100.00;99942.59;4999224;28;20087;-78
2022/11/24 10:09:25;;;;;;;39.43;23.37;;;;;;;9.80;100.00;99944.31;4995686;28;20046;-80
2022/11/24 10:12:02;;;;;;;47.25;25.58;;;;;;;9.15;100.00;99818.00;4992966;28;20054;-79
2022/11/24 10:14:53;;;;;;;52.38;25.65;;;;;;;10.11;100.00;99938.91;5004454;28;20075;-78
2022/11/24 10:17:44;;;;;;;41.15;22.00;;;;;;;10.15;100.00;99940.66;4999718;28;20050;-78
2022/11/24 10:20:27;;;;;;;53.25;25.50;;;;;;;10.01;100.00;99927.63;4983584;28;20126;-84
2022/11/24 10:23:13;;;;;;;44.27;24.93;;;;;;;10.01;100.00;99956.44;4999595;28;20561;-79
2022/11/24 10:25:48;;;;;;;40.05;23.63;;;;;;;9.35;100.00;99817.94;5006997;28;20052;-81
2022/11/24 10:28:18;;;;;;;44.75;22.45;;;;;;;9.86;100.00;99933.81;5004647;28;20401;-80
2022/11/24 10:30:45;;;;;;;46.42;22.02;;;;;;;9.62;100.00;99876.28;5010020;28;20054;-81
2022/11/24 10:33:21;;;;;;;31.75;18.80;;;;;;;9.41;100.00;99812.69;5003907;28;20060;-81
2022/11/24 10:35:55;;;;;;;36.40;20.90;;;;;;;9.81;100.00;99927.75;4997892;28;20058;-81
2022/11/24 10:38:36;;;;;;;36.35;20.98;;;;;;;9.22;100.00;99792.69;5000142;28;20137;-80
2022/11/24 10:41:15;;;;;;;39.65;23.77;;;;;;;9.98;100.00;99921.53;4991675;28;20068;-81
2022/11/24 10:43:41;;;;;;;36.13;21.42;;;;;;;9.98;100.00;99911.91;5000267;28;20029;-81
2022/11/24 10:46:12;;;;;;;32.13;20.20;;;;;;;10.26;100.00;99914.38;4995791;28;20030;-78
2022/11/24 10:49:01;;;;;;;25.98;18.75;;;;;;;9.90;100.00;99924.19;5005449;28;20045;-79
2022/11/24 10:51:35;;;;;;;34.88;20.08;;;;;;;9.43;100.00;99799.56;4995998;28;20160;-79
2022/11/24 10:54:11;;;;;;;31.67;19.60;;;;;;;9.25;100.00;99814.50;5004285;28;20046;-80
2022/11/24 10:56:45;;;;;;;41.88;19.50;;;;;;;9.02;100.00;99771.84;4998622;28;20061;-80
2022/11/24 10:59:35;;;;;;;30.73;19.15;;;;;;;9.91;100.00;99916.31;5005651;28;20132;-81
2022/11/24 11:02:01;;;;;;;32.67;21.23;;;;;;;9.99;100.00;99929.38;5005795;28;20124;-80
2022/11/24 11:04:29;;;;;;;40.85;20.63;;;;;;;9.82;100.00;99921.59;5007030;28;20037;-80
2022/11/24 11:07:19;;;;;;;30.42;20.15;;;;;;;9.88;100.00;99918.06;5012065;28;20478;-80
2022/11/24 11:09:46;;;;;;;38.58;21.85;;;;;;;9.73;100.00;99891.06;5003208;28;20172;-82
2022/11/24 11:12:19;;;;;;;33.70;24.40;;;;;;;9.70;100.00;99875.38;5009929;28;20107;-78
2022/11/24 11:14:47;;;;;;;;;;;;;;;9.93;100.00;99914.56;4992352;28;20081;-78
2022/11/24 11:17:34;;;;;;;37.60;22.65;;;;;;;9.92;100.00;99907.56;5008229;28;20380;-76
2022/11/24 11:20:15;;;;;;;34.70;23.55;;;;;;;10.01;100.00;99911.03;4990239;28;20113;-77
2022/11/24 11:22:44;;;;;;;45.13;33.13;;;;;;;9.25;100.00;99784.84;4989982;28;20027;-76
2022/11/24 11:25:09;;;;;;;64.40;43.03;;;;;;;9.87;100.00;99905.88;5000892;28;21381;-76